TimeCDT,TemperatureF,Dew PointF,Humidity,Sea Level PressureIn,VisibilityMPH,Wind Direction,Wind SpeedMPH,Gust SpeedMPH,PrecipitationIn,Events,Conditions,WindDirDegrees,DateUTC
12:15 AM,30.2,24.8,80,30.14,5.0,ESE,11.5,-,N/A,,Overcast,110,2012-10-29 05:15:00
12:35 AM,30.2,24.8,80,30.13,6.0,ESE,13.8,-,N/A,,Overcast,110,2012-10-29 05:35:00
12:55 AM,30.2,26.6,86,30.14,5.0,ESE,12.7,-,N/A,,Overcast,110,2012-10-29 05:55:00
1:15 AM,30.2,26.6,86,30.13,5.0,ESE,10.4,-,N/A,,Overcast,110,2012-10-29 06:15:00
1:35 AM,30.2,26.6,86,30.13,5.0,ESE,13.8,17.3,N/A,,Overcast,110,2012-10-29 06:35:00
1:55 AM,30.2,26.6,86,30.13,5.0,ESE,12.7,-,N/A,,Overcast,120,2012-10-29 06:55:00
2:15 AM,30.2,26.6,86,30.12,5.0,ESE,13.8,17.3,N/A,,Overcast,110,2012-10-29 07:15:00
2:35 AM,30.2,26.6,86,30.12,8.0,ESE,12.7,-,N/A,,Overcast,110,2012-10-29 07:35:00
2:55 AM,30.2,26.6,86,30.11,10.0,East,13.8,-,N/A,,Overcast,100,2012-10-29 07:55:00
3:15 AM,30.2,26.6,86,30.11,10.0,East,11.5,-,N/A,,Overcast,100,2012-10-29 08:15:00
3:35 AM,30.2,26.6,86,30.10,9.0,ESE,12.7,-,N/A,,Overcast,110,2012-10-29 08:35:00
3:55 AM,30.2,26.6,86,30.10,8.0,ESE,13.8,-,N/A,,Overcast,110,2012-10-29 08:55:00
4:15 AM,30.2,26.6,86,30.10,7.0,East,10.4,-,N/A,,Overcast,100,2012-10-29 09:15:00
4:35 AM,30.2,26.6,86,30.09,8.0,East,12.7,-,N/A,,Overcast,100,2012-10-29 09:35:00
4:55 AM,30.2,26.6,86,30.09,7.0,East,15.0,-,N/A,,Overcast,100,2012-10-29 09:55:00
5:15 AM,30.2,26.6,86,30.08,7.0,East,13.8,-,N/A,,Overcast,100,2012-10-29 10:15:00
5:35 AM,30.2,26.6,86,30.08,8.0,ESE,15.0,-,N/A,,Overcast,110,2012-10-29 10:35:00
5:55 AM,30.2,28.4,93,30.08,8.0,ESE,17.3,20.7,N/A,,Overcast,110,2012-10-29 10:55:00
6:15 AM,30.2,26.6,86,30.08,8.0,ESE,13.8,19.6,N/A,,Overcast,110,2012-10-29 11:15:00
6:35 AM,30.2,28.4,93,30.09,7.0,ESE,11.5,-,N/A,,Overcast,110,2012-10-29 11:35:00
6:55 AM,32.0,28.4,87,30.09,7.0,ESE,10.4,-,N/A,,Overcast,110,2012-10-29 11:55:00
7:15 AM,32.0,28.4,87,30.10,8.0,ESE,10.4,-,N/A,,Overcast,120,2012-10-29 12:15:00
7:35 AM,32.0,28.4,87,30.10,7.0,ESE,11.5,-,N/A,,Overcast,110,2012-10-29 12:35:00
7:55 AM,32.0,28.4,87,30.10,7.0,East,11.5,-,N/A,,Overcast,100,2012-10-29 12:55:00
8:15 AM,32.0,28.4,87,30.10,7.0,ESE,12.7,-,N/A,,Overcast,120,2012-10-29 13:15:00
8:35 AM,32.0,28.4,87,30.10,5.0,East,10.4,-,N/A,,Overcast,100,2012-10-29 13:35:00
8:55 AM,32.0,28.4,87,30.10,5.0,ESE,9.2,-,N/A,,Overcast,110,2012-10-29 13:55:00
9:15 AM,32.0,28.4,87,30.10,5.0,ESE,10.4,-,N/A,,Overcast,120,2012-10-29 14:15:00
9:35 AM,33.8,28.4,81,30.10,5.0,ESE,10.4,-,N/A,,Overcast,110,2012-10-29 14:35:00
9:55 AM,33.8,28.4,81,30.10,5.0,ESE,9.2,-,N/A,,Overcast,110,2012-10-29 14:55:00
10:15 AM,33.8,28.4,81,30.10,5.0,ESE,10.4,-,N/A,,Overcast,110,2012-10-29 15:15:00
10:35 AM,33.8,30.2,87,30.10,7.0,ESE,11.5,-,N/A,,Overcast,110,2012-10-29 15:35:00
10:55 AM,33.8,30.2,87,30.10,7.0,ESE,9.2,-,N/A,,Overcast,110,2012-10-29 15:55:00
11:15 AM,35.6,30.2,81,30.10,8.0,ESE,11.5,-,N/A,,Overcast,120,2012-10-29 16:15:00
11:35 AM,35.6,30.2,81,30.10,9.0,ESE,10.4,-,N/A,,Overcast,120,2012-10-29 16:35:00
11:55 AM,37.4,30.2,75,30.10,10.0,ESE,11.5,-,N/A,,Overcast,110,2012-10-29 16:55:00
12:15 PM,37.4,32.0,81,30.10,10.0,SE,13.8,-,N/A,,Overcast,130,2012-10-29 17:15:00
12:35 PM,39.2,33.8,81,30.09,10.0,SE,15.0,-,N/A,,Overcast,130,2012-10-29 17:35:00
12:55 PM,39.2,33.8,81,30.09,10.0,SE,11.5,-,N/A,,Mostly Cloudy,130,2012-10-29 17:55:00
1:15 PM,41.0,33.8,76,30.08,10.0,ESE,12.7,-,N/A,,Partly Cloudy,120,2012-10-29 18:15:00
1:35 PM,42.8,33.8,70,30.08,10.0,ESE,11.5,-,N/A,,Clear,120,2012-10-29 18:35:00
1:55 PM,42.8,33.8,70,30.08,10.0,ESE,12.7,-,N/A,,Clear,120,2012-10-29 18:55:00
2:15 PM,44.6,33.8,66,30.08,10.0,ESE,12.7,-,N/A,,Clear,120,2012-10-29 19:15:00
2:35 PM,44.6,33.8,66,30.07,10.0,ESE,11.5,-,N/A,,Clear,120,2012-10-29 19:35:00
2:55 PM,44.6,33.8,66,30.08,10.0,SE,11.5,-,N/A,,Clear,130,2012-10-29 19:55:00
3:15 PM,46.4,33.8,62,30.07,10.0,SE,11.5,-,N/A,,Clear,130,2012-10-29 20:15:00
3:35 PM,46.4,33.8,62,30.07,10.0,SE,12.7,-,N/A,,Clear,130,2012-10-29 20:35:00
3:55 PM,46.4,33.8,62,30.07,10.0,SE,15.0,-,N/A,,Clear,130,2012-10-29 20:55:00
4:15 PM,46.4,33.8,62,30.07,10.0,SE,11.5,-,N/A,,Clear,130,2012-10-29 21:15:00
4:35 PM,46.4,33.8,62,30.07,10.0,ESE,12.7,-,N/A,,Clear,120,2012-10-29 21:35:00
4:55 PM,46.4,33.8,62,30.07,10.0,ESE,13.8,-,N/A,,Clear,120,2012-10-29 21:55:00
5:15 PM,46.4,33.8,62,30.07,10.0,SE,11.5,-,N/A,,Clear,130,2012-10-29 22:15:00
5:35 PM,44.6,33.8,66,30.07,10.0,SE,10.4,-,N/A,,Clear,130,2012-10-29 22:35:00
5:55 PM,44.6,33.8,66,30.07,10.0,SE,9.2,-,N/A,,Clear,140,2012-10-29 22:55:00
6:15 PM,42.8,33.8,70,30.07,10.0,SE,8.1,-,N/A,,Clear,140,2012-10-29 23:15:00
6:35 PM,41.0,33.8,76,30.08,10.0,SE,8.1,-,N/A,,Clear,130,2012-10-29 23:35:00
6:55 PM,41.0,33.8,76,30.08,10.0,ESE,9.2,-,N/A,,Clear,120,2012-10-29 23:55:00
7:15 PM,39.2,33.8,81,30.08,10.0,ESE,8.1,-,N/A,,Clear,110,2012-10-30 00:15:00
7:35 PM,39.2,33.8,81,30.08,10.0,ESE,9.2,-,N/A,,Clear,110,2012-10-30 00:35:00
7:55 PM,39.2,33.8,81,30.08,10.0,ESE,9.2,-,N/A,,Clear,110,2012-10-30 00:55:00
8:15 PM,39.2,33.8,81,30.08,10.0,ESE,10.4,-,N/A,,Clear,110,2012-10-30 01:15:00
8:35 PM,39.2,33.8,81,30.07,10.0,ESE,11.5,-,N/A,,Clear,120,2012-10-30 01:35:00
8:55 PM,39.2,33.8,81,30.08,10.0,ESE,9.2,-,N/A,,Clear,120,2012-10-30 01:55:00
9:15 PM,39.2,33.8,81,30.07,10.0,ESE,11.5,-,N/A,,Clear,120,2012-10-30 02:15:00
9:35 PM,39.2,33.8,81,30.07,10.0,ESE,11.5,-,N/A,,Clear,120,2012-10-30 02:35:00
9:55 PM,39.2,33.8,81,30.08,10.0,SE,9.2,-,N/A,,Mostly Cloudy,130,2012-10-30 02:55:00
10:15 PM,41.0,33.8,76,30.08,10.0,SE,8.1,-,N/A,,Overcast,130,2012-10-30 03:15:00
10:35 PM,42.8,33.8,70,30.09,10.0,SE,11.5,16.1,N/A,,Overcast,140,2012-10-30 03:35:00
10:55 PM,42.8,33.8,70,30.09,10.0,SE,11.5,-,N/A,,Mostly Cloudy,130,2012-10-30 03:55:00
11:15 PM,41.0,32.0,70,30.08,10.0,SE,11.5,-,N/A,,Overcast,130,2012-10-30 04:15:00
11:35 PM,41.0,32.0,70,30.08,10.0,SE,9.2,-,N/A,,Overcast,130,2012-10-30 04:35:00
11:55 PM,41.0,33.8,76,30.08,10.0,SE,9.2,-,N/A,,Overcast,140,2012-10-30 04:55:00